createdAt,value
2023-03-25T00:01:43.503Z,96503.09
2023-03-25T00:04:11.040Z,96493.28
2023-03-25T00:06:39.205Z,96495.50
2023-03-25T00:09:08.259Z,96490.59
2023-03-25T00:11:36.975Z,96488.19
2023-03-25T00:14:04.655Z,96490.59
2023-03-25T00:16:32.286Z,96491.63
2023-03-25T00:19:02.020Z,96487.38
2023-03-25T00:21:29.496Z,96476.25
2023-03-25T00:23:57.056Z,96476.25
2023-03-25T00:26:29.996Z,96486.28
2023-03-25T00:28:57.509Z,96490.59
2023-03-25T00:31:25.068Z,96473.78
2023-03-25T00:33:52.674Z,96480.16
2023-03-25T00:36:20.237Z,96472.16
2023-03-25T00:38:49.932Z,96472.56
2023-03-25T00:41:22.639Z,96471.75
2023-03-25T00:43:53.273Z,96463.75
2023-03-25T00:46:22.801Z,96452.03
2023-03-25T00:48:52.565Z,96453.66
2023-03-25T00:51:21.650Z,96456.34
2023-03-25T00:53:52.272Z,96461.09
2023-03-25T00:56:19.855Z,96453.31
2023-03-25T00:58:47.384Z,96461.28
2023-03-25T01:01:18.871Z,96458.19
2023-03-25T01:03:46.628Z,96461.91
2023-03-25T01:06:16.783Z,96457.41
2023-03-25T01:08:45.146Z,96439.84
2023-03-25T01:11:19.734Z,96458.91
2023-03-25T01:13:51.234Z,96458.97
2023-03-25T01:16:20.370Z,96464.50
2023-03-25T01:18:47.973Z,96454.72
2023-03-25T01:21:15.854Z,96442.66
2023-03-25T01:23:43.426Z,96454.47
2023-03-25T01:26:12.978Z,96454.53
2023-03-25T01:28:41.235Z,96455.97
2023-03-25T01:31:10.743Z,96444.34
2023-03-25T01:33:40.557Z,96443.78
2023-03-25T01:36:10.294Z,96444.81
2023-03-25T01:38:37.980Z,96447.72
2023-03-25T01:41:06.646Z,96440.56
2023-03-25T01:43:34.772Z,96440.75
2023-03-25T01:46:02.387Z,96436.47
2023-03-25T01:48:35.728Z,96426.91
2023-03-25T01:51:08.029Z,96423.78
2023-03-25T01:53:35.656Z,96430.94
2023-03-25T01:56:05.465Z,96422.00
2023-03-25T01:58:34.993Z,96434.28
2023-03-25T02:01:03.322Z,96427.31
2023-03-25T02:03:36.966Z,96427.75
2023-03-25T02:06:10.244Z,96422.44
2023-03-25T02:08:41.522Z,96423.88
2023-03-25T02:11:10.491Z,96419.78
2023-03-25T02:13:40.053Z,96421.84
2023-03-25T02:16:19.234Z,96425.72
2023-03-25T02:18:53.575Z,96422.44
2023-03-25T02:22:01.659Z,96416.50
2023-03-25T02:24:57.898Z,96404.44
2023-03-25T02:27:33.739Z,96403.38
2023-03-25T02:30:33.887Z,96394.81
2023-03-25T02:33:35.522Z,96396.06
2023-03-25T02:36:22.389Z,96396.66
2023-03-25T02:38:52.594Z,96393.34
2023-03-25T02:41:25.672Z,96397.03
2023-03-25T02:44:00.729Z,96399.94
2023-03-25T02:46:29.293Z,96398.31
2023-03-25T02:48:59.684Z,96407.94
2023-03-25T02:51:30.979Z,96400.75
2023-03-25T02:54:04.018Z,96399.75
2023-03-25T02:56:33.014Z,96399.56
2023-03-25T02:59:01.910Z,96400.59
2023-03-25T03:01:29.443Z,96399.13
2023-03-25T03:03:57.711Z,96395.28
2023-03-25T03:06:26.086Z,96389.16
2023-03-25T03:09:09.021Z,96391.97
2023-03-25T03:11:42.870Z,96410.38
2023-03-25T03:14:26.465Z,96407.31
2023-03-25T03:17:00.766Z,96403.25
2023-03-25T03:19:38.254Z,96403.25
2023-03-25T03:22:15.187Z,96406.13
2023-03-25T03:24:47.295Z,96396.72
2023-03-25T03:27:23.783Z,96398.38
2023-03-25T03:29:53.798Z,96398.59
2023-03-25T03:32:24.541Z,96401.47
2023-03-25T03:34:54.152Z,96393.47
2023-03-25T03:37:24.564Z,96392.63
2023-03-25T03:39:55.486Z,96389.81
2023-03-25T03:42:28.719Z,96401.88
2023-03-25T03:44:59.766Z,96400.44
2023-03-25T03:47:30.496Z,96415.38
2023-03-25T03:50:00.634Z,96433.59
2023-03-25T03:52:31.698Z,96448.31
2023-03-25T03:55:01.889Z,96441.81
2023-03-25T03:57:32.453Z,96442.22
2023-03-25T04:00:06.909Z,96450.81
2023-03-25T04:02:42.948Z,96446.31
2023-03-25T04:05:12.655Z,96435.09
2023-03-25T04:07:41.615Z,96434.25
2023-03-25T04:10:15.013Z,96442.03
2023-03-25T04:12:44.995Z,96442.22
2023-03-25T04:15:13.346Z,96441.00
2023-03-25T04:17:40.911Z,96452.44
2023-03-25T04:20:11.595Z,96441.41
2023-03-25T04:22:39.165Z,96456.09
2023-03-25T04:25:07.343Z,96460.19
2023-03-25T04:27:37.642Z,96471.81
2023-03-25T04:30:06.535Z,96486.72
2023-03-25T04:32:34.885Z,96472.63
2023-03-25T04:35:02.470Z,96488.13
2023-03-25T04:37:30.119Z,96471.19
2023-03-25T04:40:00.231Z,96471.16
2023-03-25T04:42:33.086Z,96461.56
2023-03-25T04:45:02.520Z,96447.06
2023-03-25T04:47:30.153Z,96461.16
2023-03-25T04:49:57.687Z,96457.06
2023-03-25T04:52:25.214Z,96451.19
2023-03-25T04:54:52.665Z,96456.47
2023-03-25T04:57:20.261Z,96439.13
2023-03-25T04:59:47.818Z,96437.91
2023-03-25T05:02:18.357Z,96437.31
2023-03-25T05:04:47.425Z,96436.91
2023-03-25T05:07:16.578Z,96433.41
2023-03-25T05:09:44.308Z,96433.81
2023-03-25T05:12:11.830Z,96443.81
2023-03-25T05:14:39.405Z,96424.06
2023-03-25T05:17:06.923Z,96442.19
2023-03-25T05:19:35.828Z,96451.59
2023-03-25T05:22:04.681Z,96450.78
2023-03-25T05:24:32.394Z,96444.88
2023-03-25T05:27:02.359Z,96446.09
2023-03-25T05:29:34.162Z,96454.69
2023-03-25T05:32:01.791Z,96456.94
2023-03-25T05:34:31.081Z,96464.69
2023-03-25T05:36:59.928Z,96452.03
2023-03-25T05:39:27.451Z,96453.47
2023-03-25T05:41:55.779Z,96448.56
2023-03-25T05:44:23.355Z,96444.69
2023-03-25T05:46:51.255Z,96449.38
2023-03-25T05:49:18.819Z,96441.41
2023-03-25T05:51:49.777Z,96433.22
2023-03-25T05:54:18.755Z,96441.00
2023-03-25T05:56:46.743Z,96444.66
2023-03-25T05:59:14.452Z,96439.34
2023-03-25T06:01:45.714Z,96444.47
2023-03-25T06:04:13.751Z,96452.41
2023-03-25T06:06:41.372Z,96463.38
2023-03-25T06:09:09.589Z,96459.91
2023-03-25T06:11:39.015Z,96463.97
2023-03-25T06:14:07.091Z,96468.69
2023-03-25T06:16:35.468Z,96458.09
2023-03-25T06:19:03.191Z,96475.44
2023-03-25T06:21:35.473Z,96474.19
2023-03-25T06:24:03.323Z,96475.44
2023-03-25T06:26:32.511Z,96474.00
2023-03-25T06:29:03.877Z,96459.72
2023-03-25T06:31:33.624Z,96456.63
2023-03-25T06:34:02.322Z,96461.31
2023-03-25T06:36:29.949Z,96469.66
2023-03-25T06:38:58.345Z,96476.00
2023-03-25T06:41:26.106Z,96475.63
2023-03-25T06:44:06.457Z,96475.44
2023-03-25T06:46:52.592Z,96469.88
2023-03-25T06:49:29.550Z,96472.94
2023-03-25T06:51:58.364Z,96480.31
2023-03-25T06:54:26.019Z,96485.19
2023-03-25T06:56:53.535Z,96488.25
2023-03-25T06:59:22.405Z,96489.72
2023-03-25T07:01:50.008Z,96478.47
2023-03-25T07:04:19.649Z,96494.19
2023-03-25T07:06:47.400Z,96490.16
2023-03-25T07:09:15.488Z,96491.56
2023-03-25T07:12:12.785Z,96487.31
2023-03-25T07:14:41.610Z,96498.13
2023-03-25T07:17:09.420Z,96497.28
2023-03-25T07:19:36.919Z,96500.19
2023-03-25T07:22:04.441Z,96501.00
2023-03-25T07:24:42.527Z,96502.03
2023-03-25T07:27:13.992Z,96502.22
2023-03-25T07:29:46.568Z,96508.78
2023-03-25T07:32:14.539Z,96512.47
2023-03-25T07:34:42.111Z,96510.84
2023-03-25T07:37:09.699Z,96509.59
2023-03-25T07:39:37.279Z,96510.84
2023-03-25T07:42:06.532Z,96500.66
2023-03-25T07:44:55.377Z,96510.84
2023-03-25T07:47:23.803Z,96507.97
2023-03-25T07:49:51.309Z,96513.72
2023-03-25T07:52:18.779Z,96507.97
2023-03-25T07:54:46.290Z,96517.19
2023-03-25T07:57:14.058Z,96508.84
2023-03-25T07:59:41.663Z,96511.91
2023-03-25T08:02:13.569Z,96533.16
2023-03-25T08:04:41.149Z,96530.50
2023-03-25T08:07:09.131Z,96538.47
2023-03-25T08:09:36.669Z,96533.34
2023-03-25T08:12:04.534Z,96539.06
2023-03-25T08:14:32.128Z,96531.50
2023-03-25T08:16:59.695Z,96537.03
2023-03-25T08:19:28.944Z,96526.41
2023-03-25T08:21:56.915Z,96530.28
2023-03-25T08:24:26.871Z,96542.34
2023-03-25T08:26:54.875Z,96539.28
2023-03-25T08:29:22.490Z,96536.41
2023-03-25T08:31:52.409Z,96539.06
2023-03-25T08:34:21.030Z,96537.44
2023-03-25T08:36:49.852Z,96537.03
2023-03-25T08:39:18.408Z,96535.19
2023-03-25T08:41:46.287Z,96529.25
2023-03-25T08:44:13.825Z,96531.50
2023-03-25T08:46:41.408Z,96520.69
2023-03-25T08:49:08.968Z,96520.69
2023-03-25T08:51:36.576Z,96524.97
2023-03-25T08:54:05.676Z,96528.06
2023-03-25T08:56:33.295Z,96515.16
2023-03-25T08:59:01.312Z,96503.09
2023-03-25T09:01:29.304Z,96513.53
2023-03-25T09:03:57.810Z,96523.13
2023-03-25T09:06:26.061Z,96512.09
2023-03-25T09:08:55.857Z,96521.72
2023-03-25T09:11:36.122Z,96511.03
2023-03-25T09:14:05.066Z,96515.09
2023-03-25T09:16:32.759Z,96513.69
2023-03-25T09:19:00.272Z,96513.91
2023-03-25T09:21:27.772Z,96525.13
2023-03-25T09:23:55.615Z,96528.84
2023-03-25T09:26:23.125Z,96531.31
2023-03-25T09:28:51.945Z,96537.03
2023-03-25T09:31:19.565Z,96529.25
2023-03-25T09:33:47.119Z,96539.69
2023-03-25T09:36:14.644Z,96547.88
2023-03-25T09:38:42.119Z,96545.81
2023-03-25T09:41:29.279Z,96532.72
2023-03-25T09:44:03.574Z,96537.00
2023-03-25T09:46:31.321Z,96551.75
2023-03-25T09:48:59.677Z,96536.16
2023-03-25T09:51:29.683Z,96544.69
2023-03-25T09:54:00.648Z,96531.38
2023-03-25T09:56:29.932Z,96522.97
2023-03-25T09:59:01.330Z,96539.56
2023-03-25T10:01:37.715Z,96527.41
2023-03-25T10:04:25.780Z,96527.00
2023-03-25T10:06:57.717Z,96528.81
2023-03-25T10:09:34.227Z,96521.63
2023-03-25T10:12:06.883Z,96520.63
2023-03-25T10:14:39.265Z,96520.41
2023-03-25T10:17:16.521Z,96523.56
2023-03-25T10:19:51.328Z,96520.13
2023-03-25T10:22:22.348Z,96528.44
2023-03-25T10:24:52.984Z,96525.56
2023-03-25T10:27:24.275Z,96506.56
2023-03-25T10:29:55.371Z,96527.69
2023-03-25T10:32:32.994Z,96523.59
2023-03-25T10:35:02.165Z,96533.00
2023-03-25T10:37:32.722Z,96527.34
2023-03-25T10:40:12.761Z,96515.94
2023-03-25T10:42:45.256Z,96529.72
2023-03-25T10:45:14.793Z,96537.03
2023-03-25T10:47:45.162Z,96518.50
2023-03-25T10:50:16.330Z,96526.50
2023-03-25T10:52:44.619Z,96537.88
2023-03-25T10:55:23.774Z,96523.53
2023-03-25T10:57:51.908Z,96518.72
2023-03-25T11:00:24.550Z,96514.59
2023-03-25T11:02:52.495Z,96517.00
2023-03-25T11:05:22.245Z,96520.09
2023-03-25T11:07:53.016Z,96519.09
2023-03-25T11:10:22.644Z,96530.03
2023-03-25T11:12:51.590Z,96526.81
2023-03-25T11:15:23.553Z,96530.00
2023-03-25T11:17:58.329Z,96524.84
2023-03-25T11:20:28.762Z,96516.72
2023-03-25T11:23:04.973Z,96516.13
2023-03-25T11:25:34.835Z,96523.91
2023-03-25T11:28:03.958Z,96527.69
2023-03-25T11:30:32.775Z,96514.00
2023-03-25T11:33:04.159Z,96526.50
2023-03-25T11:35:34.380Z,96518.91
2023-03-25T11:38:03.597Z,96515.50
2023-03-25T11:40:32.949Z,96516.28
2023-03-25T11:43:01.693Z,96512.13
2023-03-25T11:45:35.892Z,96501.03
2023-03-25T11:48:11.538Z,96505.47
2023-03-25T11:50:39.187Z,96503.69
2023-03-25T11:53:07.186Z,96499.41
2023-03-25T11:55:45.208Z,96499.81
2023-03-25T11:58:16.464Z,96486.22
2023-03-25T12:00:47.977Z,96480.13
2023-03-25T12:03:21.010Z,96478.06
2023-03-25T12:05:59.112Z,96485.03
2023-03-25T12:08:30.238Z,96465.88
2023-03-25T12:11:01.892Z,96450.03
2023-03-25T12:13:36.577Z,96443.78
2023-03-25T12:16:18.561Z,96437.63
2023-03-25T12:19:00.894Z,96435.56
2023-03-25T12:21:37.746Z,96438.06
2023-03-25T12:24:14.087Z,96434.72
2023-03-25T12:26:45.502Z,96424.72
2023-03-25T12:29:23.567Z,96421.91
2023-03-25T12:32:01.989Z,96443.34
2023-03-25T12:34:39.634Z,96485.00
2023-03-25T12:37:17.631Z,96486.31
2023-03-25T12:39:57.283Z,96463.34
2023-03-25T12:42:36.173Z,96453.63
2023-03-25T12:45:16.182Z,96440.34
2023-03-25T12:47:47.964Z,96436.44
2023-03-25T12:50:34.970Z,96445.09
2023-03-25T12:53:13.350Z,96454.28
2023-03-25T12:55:52.127Z,96471.63
2023-03-25T12:58:31.272Z,96473.97
2023-03-25T13:01:01.992Z,96537.44
2023-03-25T13:04:00.709Z,96518.38
2023-03-25T13:06:31.236Z,96511.53
2023-03-25T13:09:02.065Z,96508.69
2023-03-25T13:11:33.332Z,96504.72
2023-03-25T13:14:05.531Z,96532.91
2023-03-25T13:16:34.048Z,96524.25
2023-03-25T13:19:04.916Z,96536.78
2023-03-25T13:21:34.506Z,96522.31
2023-03-25T13:24:04.883Z,96510.66
2023-03-25T13:26:33.519Z,96514.50
2023-03-25T13:29:02.316Z,96512.03
2023-03-25T13:31:35.470Z,96510.38
2023-03-25T13:34:15.510Z,96509.94
2023-03-25T13:36:44.727Z,96505.06
2023-03-25T13:39:15.446Z,96518.50
2023-03-25T13:41:44.976Z,96509.53
2023-03-25T13:44:16.491Z,96487.34
2023-03-25T13:46:50.033Z,96477.75
2023-03-25T13:49:24.246Z,96484.91
2023-03-25T13:51:51.721Z,96486.38
2023-03-25T13:54:23.060Z,96479.84
2023-03-25T13:57:26.400Z,96473.09
2023-03-25T14:00:15.468Z,96485.94
2023-03-25T14:02:53.922Z,96482.28
2023-03-25T14:05:56.290Z,96493.09
2023-03-25T14:08:47.755Z,96482.69
2023-03-25T14:11:21.581Z,96482.66
2023-03-25T14:13:53.191Z,96485.09
2023-03-25T14:16:22.641Z,96487.75
2023-03-25T14:18:51.591Z,96494.31
2023-03-25T14:21:31.365Z,96503.06
2023-03-25T14:24:08.039Z,96497.34
2023-03-25T14:26:37.644Z,96494.91
2023-03-25T14:29:09.866Z,96482.41
2023-03-25T14:31:37.548Z,96492.03
2023-03-25T14:34:29.355Z,96480.38
2023-03-25T14:37:18.931Z,96491.00
2023-03-25T14:39:46.472Z,96484.47
2023-03-25T14:42:42.215Z,96478.53
2023-03-25T14:45:43.262Z,96482.59
2023-03-25T14:48:31.197Z,96490.38
2023-03-25T14:51:22.366Z,96480.53
2023-03-25T14:53:54.768Z,96476.81
2023-03-25T14:56:25.428Z,96466.44
2023-03-25T14:58:55.169Z,96481.53
2023-03-25T15:01:29.380Z,96468.63
2023-03-25T15:04:09.490Z,96478.13
2023-03-25T15:06:37.227Z,96471.53
2023-03-25T15:09:09.820Z,96459.44
2023-03-25T15:11:37.871Z,96467.16
2023-03-25T15:14:07.778Z,96447.53
2023-03-25T15:16:37.320Z,96458.56
2023-03-25T15:19:11.438Z,96445.91
2023-03-25T15:22:10.948Z,96462.41
2023-03-25T15:24:39.945Z,96447.44
2023-03-25T15:27:12.188Z,96457.41
2023-03-25T15:29:46.663Z,96463.91
2023-03-25T15:32:30.991Z,96454.53
2023-03-25T15:35:14.581Z,96453.50
2023-03-25T15:37:54.913Z,96460.91
2023-03-25T15:40:32.031Z,96457.28
2023-03-25T15:43:44.692Z,96452.16
2023-03-25T15:47:00.079Z,96463.63
2023-03-25T15:49:37.247Z,96463.56
2023-03-25T15:52:16.357Z,96460.75
2023-03-25T15:54:45.545Z,96452.56
2023-03-25T15:57:23.185Z,96471.59
2023-03-25T15:59:56.844Z,96460.94
2023-03-25T16:02:29.496Z,96467.13
2023-03-25T16:04:57.529Z,96463.63
2023-03-25T16:07:28.699Z,96447.44
2023-03-25T16:09:56.393Z,96445.91
2023-03-25T16:12:26.242Z,96435.84
2023-03-25T16:14:53.833Z,96447.50
2023-03-25T16:17:22.644Z,96436.41
2023-03-25T16:19:52.720Z,96447.81
2023-03-25T16:22:23.106Z,96454.25
2023-03-25T16:24:51.906Z,96452.59
2023-03-25T16:27:26.668Z,96460.22
2023-03-25T16:29:55.470Z,96452.03
2023-03-25T16:32:24.490Z,96457.03
2023-03-25T16:34:53.844Z,96466.28
2023-03-25T16:37:22.589Z,96471.28
2023-03-25T16:39:53.315Z,96474.34
2023-03-25T16:42:27.336Z,96472.13
2023-03-25T16:44:55.136Z,96476.06
2023-03-25T16:47:23.297Z,96474.44
2023-03-25T16:49:53.451Z,96465.06
2023-03-25T16:52:26.155Z,96475.06
2023-03-25T16:55:33.239Z,96462.22
2023-03-25T16:58:03.406Z,96466.72
2023-03-25T17:00:43.242Z,96469.59
2023-03-25T17:03:17.790Z,96479.03
2023-03-25T17:05:54.844Z,96501.75
2023-03-25T17:08:22.692Z,96507.09
2023-03-25T17:10:52.111Z,96514.69
2023-03-25T17:13:26.344Z,96502.22
2023-03-25T17:15:53.991Z,96504.50
2023-03-25T17:18:24.647Z,96496.16
2023-03-25T17:20:57.814Z,96497.13
2023-03-25T17:23:35.403Z,96483.03
2023-03-25T17:26:06.938Z,96484.69
2023-03-25T17:28:38.991Z,96498.00
2023-03-25T17:31:25.544Z,96488.38
2023-03-25T17:33:54.391Z,96496.53
2023-03-25T17:36:22.261Z,96495.09
2023-03-25T17:38:53.376Z,96494.69
2023-03-25T17:41:21.659Z,96494.72
2023-03-25T17:43:52.296Z,96490.22
2023-03-25T17:46:21.612Z,96491.03
2023-03-25T17:48:50.708Z,96491.44
2023-03-25T17:51:19.445Z,96489.00
2023-03-25T17:53:46.952Z,96488.38
2023-03-25T17:56:16.321Z,96492.06
2023-03-25T17:58:44.174Z,96488.59
2023-03-25T18:01:13.918Z,96488.38
2023-03-25T18:03:41.709Z,96488.81
2023-03-25T18:06:09.933Z,96492.91
2023-03-25T18:08:37.670Z,96492.06
2023-03-25T18:11:06.707Z,96490.84
2023-03-25T18:13:34.252Z,96487.56
2023-03-25T18:16:02.006Z,96486.16
2023-03-25T18:18:31.119Z,96494.09
2023-03-25T18:20:59.865Z,96496.56
2023-03-25T18:23:28.338Z,96500.63
2023-03-25T18:26:02.975Z,96493.91
2023-03-25T18:28:31.033Z,96491.03
2023-03-25T18:31:00.270Z,96490.59
2023-03-25T18:33:28.622Z,96494.69
2023-03-25T18:35:59.810Z,96499.00
2023-03-25T18:38:28.449Z,96490.63
2023-03-25T18:40:56.907Z,96498.38
2023-03-25T18:43:24.470Z,96487.97
2023-03-25T18:45:52.013Z,96496.34
2023-03-25T18:48:21.617Z,96487.75
2023-03-25T18:50:52.589Z,96495.13
2023-03-25T18:53:21.886Z,96502.28
2023-03-25T18:55:50.390Z,96503.91
2023-03-25T18:58:19.004Z,96499.63
2023-03-25T19:00:48.315Z,96506.78
2023-03-25T19:03:16.334Z,96501.25
2023-03-25T19:05:44.590Z,96508.81
2023-03-25T19:08:16.614Z,96509.84
2023-03-25T19:10:46.449Z,96508.00
2023-03-25T19:13:14.791Z,96503.91
2023-03-25T19:15:43.265Z,96506.78
2023-03-25T19:18:14.915Z,96509.22
2023-03-25T19:20:44.466Z,96510.41
2023-03-25T19:23:12.642Z,96506.38
2023-03-25T19:25:41.458Z,96510.03
2023-03-25T19:28:10.392Z,96516.59
2023-03-25T19:30:38.041Z,96521.72
2023-03-25T19:33:06.169Z,96521.69
2023-03-25T19:35:33.827Z,96531.31
2023-03-25T19:38:03.309Z,96540.31
2023-03-25T19:40:32.684Z,96539.50
2023-03-25T19:43:02.461Z,96532.53
2023-03-25T19:45:32.095Z,96531.50
2023-03-25T19:47:59.639Z,96535.00
2023-03-25T19:50:29.245Z,96528.03
2023-03-25T19:52:57.291Z,96524.56
2023-03-25T19:55:24.965Z,96515.34
2023-03-25T19:57:53.180Z,96531.94
2023-03-25T20:00:22.984Z,96520.88
2023-03-25T20:02:53.825Z,96514.97
2023-03-25T20:05:22.802Z,96506.78
2023-03-25T20:07:51.531Z,96495.34
2023-03-25T20:10:21.718Z,96503.50
2023-03-25T20:12:49.529Z,96496.53
2023-03-25T20:15:17.781Z,96502.69
2023-03-25T20:17:45.515Z,96487.75
2023-03-25T20:20:14.813Z,96491.22
2023-03-25T20:22:44.708Z,96475.28
2023-03-25T20:25:13.743Z,96467.13
2023-03-25T20:27:42.493Z,96468.53
2023-03-25T20:30:11.807Z,96477.53
2023-03-25T20:32:42.153Z,96487.75
2023-03-25T20:35:12.896Z,96491.25
2023-03-25T20:37:42.072Z,96484.50
2023-03-25T20:40:12.033Z,96490.22
2023-03-25T20:42:40.009Z,96496.75
2023-03-25T20:45:08.907Z,96485.72
2023-03-25T20:47:36.767Z,96484.50
2023-03-25T20:50:05.045Z,96496.75
2023-03-25T20:52:32.548Z,96493.47
2023-03-25T20:55:01.409Z,96492.88
2023-03-25T20:57:28.999Z,96499.22
2023-03-25T20:59:56.808Z,96497.78
2023-03-25T21:02:24.967Z,96493.50
2023-03-25T21:04:55.192Z,96503.09
2023-03-25T21:07:24.294Z,96502.06
2023-03-25T21:09:51.848Z,96511.69
2023-03-25T21:12:23.167Z,96505.75
2023-03-25T21:14:54.850Z,96499.22
2023-03-25T21:17:22.521Z,96496.53
2023-03-25T21:19:50.225Z,96502.06
2023-03-25T21:22:17.778Z,96506.97
2023-03-25T21:24:45.375Z,96498.56
2023-03-25T21:27:14.013Z,96493.69
2023-03-25T21:29:42.849Z,96497.59
2023-03-25T21:32:10.988Z,96488.59
2023-03-25T21:34:40.544Z,96498.19
2023-03-25T21:37:08.013Z,96494.13
2023-03-25T21:39:35.838Z,96502.06
2023-03-25T21:42:10.112Z,96499.00
2023-03-25T21:44:40.683Z,96502.28
2023-03-25T21:47:09.764Z,96500.22
2023-03-25T21:49:38.224Z,96492.44
2023-03-25T21:52:06.497Z,96497.56
2023-03-25T21:54:34.144Z,96488.38
2023-03-25T21:57:04.427Z,96490.03
2023-03-25T21:59:32.137Z,96489.19
2023-03-25T22:01:59.628Z,96489.19
2023-03-25T22:04:28.568Z,96497.78
2023-03-25T22:06:56.680Z,96505.75
2023-03-25T22:09:24.213Z,96501.47
2023-03-25T22:11:51.744Z,96506.38
2023-03-25T22:14:19.285Z,96500.06
2023-03-25T22:16:46.912Z,96505.38
2023-03-25T22:19:14.617Z,96512.91
2023-03-25T22:21:43.864Z,96514.53
2023-03-25T22:24:11.488Z,96511.06
2023-03-25T22:26:40.121Z,96525.41
2023-03-25T22:29:08.941Z,96518.84
2023-03-25T22:31:39.632Z,96531.50
2023-03-25T22:34:11.685Z,96529.91
2023-03-25T22:36:40.736Z,96525.59
2023-03-25T22:39:10.349Z,96533.13
2023-03-25T22:41:38.004Z,96531.31
2023-03-25T22:44:05.861Z,96538.22
2023-03-25T22:46:33.868Z,96550.28
2023-03-25T22:49:04.514Z,96553.56
2023-03-25T22:51:32.236Z,96557.63
2023-03-25T22:54:00.275Z,96547.63
2023-03-25T22:56:33.878Z,96542.31
2023-03-25T22:59:02.069Z,96545.56
2023-03-25T23:01:29.802Z,96532.50
2023-03-25T23:03:58.247Z,96532.50
2023-03-25T23:06:26.568Z,96542.28
2023-03-25T23:08:55.949Z,96550.47
2023-03-25T23:11:26.034Z,96554.53
2023-03-25T23:13:56.711Z,96555.97
2023-03-25T23:16:25.844Z,96560.25
2023-03-25T23:18:53.797Z,96549.22
2023-03-25T23:21:23.027Z,96552.69
2023-03-25T23:23:53.164Z,96550.44
2023-03-25T23:26:24.524Z,96550.41
2023-03-25T23:28:52.530Z,96550.22
2023-03-25T23:31:28.478Z,96551.66
2023-03-25T23:33:57.581Z,96536.38
2023-03-25T23:36:26.012Z,96541.81
2023-03-25T23:38:53.688Z,96542.84
2023-03-25T23:41:23.230Z,96543.66
2023-03-25T23:43:51.327Z,96542.03
2023-03-25T23:46:21.841Z,96543.66
2023-03-25T23:48:54.508Z,96561.41
2023-03-25T23:51:24.087Z,96561.84
2023-03-25T23:53:52.640Z,96548.78
2023-03-25T23:56:21.690Z,96552.25
2023-03-25T23:58:49.340Z,96551.63
